This is the latest recevied weather packets stored in our database for station/object VK5GR-12. If no packets are shown the sender has not sent any weather packets the latest 10 day(s).
| Time | Temp. | Humidity | Pressure | Rain* | Wind** | Luminosity | Snow |
|---|---|---|---|---|---|---|---|
| 1777826492 | 13.33° C | 95% | 1011.4 hPa | 0 mm | - | 0 W/m² | - |
| 1777825589 | 13.33° C | 95% | 1011.4 hPa | 0 mm | - | 0 W/m² | - |
| 1777824685 | 13.33° C | 95% | 1011.6 hPa | 6.1 mm | - | 0 W/m² | - |
| 1777823780 | 12.78° C | 94% | 1011.5 hPa | 1.27 mm | - | 0 W/m² | - |
| 1777822879 | 12.78° C | 94% | 1011.5 hPa | 0 mm | - | 0 W/m² | - |
| 1777821977 | 12.78° C | 94% | 1011.5 hPa | 0 mm | - | 0 W/m² | - |
| 1777821075 | 12.78° C | 92% | 1011.8 hPa | 21.08 mm | - | 0 W/m² | - |
| 1777820170 | 13.33° C | 89% | 1011.4 hPa | 0 mm | - | 0 W/m² | - |
| 1777819268 | 13.33° C | 89% | 1011.7 hPa | 0 mm | - | 0 W/m² | - |
| 1777818365 | 13.33° C | 89% | 1011.8 hPa | 0 mm | - | 0 W/m² | - |
| 1777817461 | 13.33° C | 88% | 1011.9 hPa | 0 mm | - | 0 W/m² | - |
| 1777816558 | 13.33° C | 89% | 1012.1 hPa | 0 mm | - | 0 W/m² | - |
| 1777815655 | 12.78° C | 89% | 1012.2 hPa | 0 mm | - | 0 W/m² | - |
| 1777814751 | 13.33° C | 90% | 1012.3 hPa | 0 mm | - | 0 W/m² | - |
| 1777813848 | 13.33° C | 91% | 1012.4 hPa | 0 mm | - | 0 W/m² | - |
| 1777812946 | 13.33° C | 92% | 1012.4 hPa | 0 mm | - | 0 W/m² | - |
| 1777812044 | 12.78° C | 93% | 1012.3 hPa | 0 mm | - | 0 W/m² | - |
| 1777811140 | 12.78° C | 92% | 1012.4 hPa | 0 mm | - | 0 W/m² | - |
| 1777810237 | 12.22° C | 91% | 1012.4 hPa | 0 mm | - | 0 W/m² | - |
| 1777809334 | 12.22° C | 91% | 1012.4 hPa | 0 mm | - | 0 W/m² | - |
| 1777808431 | 12.78° C | 93% | 1012.5 hPa | 1.27 mm | - | 0 W/m² | - |
| 1777807531 | 13.33° C | 94% | 1012.3 hPa | 0 mm | - | 0 W/m² | - |
| 1777806626 | 13.33° C | 93% | 1012.2 hPa | 0 mm | - | 0 W/m² | - |
| 1777805721 | 13.33° C | 92% | 1011.9 hPa | 0 mm | - | 0 W/m² | - |
| 1777804820 | 13.89° C | 91% | 1012.3 hPa | 4.83 mm | - | 0 W/m² | - |
* Rain latest hour (hover to see other rain measurements)
** Current wind speed in m/s (hover to see current wind gust speed)